首页
METAR-TAF:

METAR-TAF

机场 :

馬丁尼克-亞米-凱薩國際機場

法兰西堡, 馬提尼克

纬度: 14-36N, 经度: 061-00W, 海拔: 5米

当前天气观测

该预报发布于29分钟前的21:00 UTC
风速10节,风向东转东南
温度 29°C
湿度 70%
气压 1010 hPa
能见度10公里或以上
少量云层高于2300英尺

METAR: TFFF 222100Z AUTO 11010KT 9999 FEW023 29/23 Q1010 TEMPO 2000 SHRA SCT015CB

时间: 17:29 (21:29 UTC)

预报

该预报发布于4小时和29分钟前的17:00 UTC
预报有效从22日的 18点(UTC)到 23日的 18点(UTC)
风速12节,风向东转东南
能见度10公里或以上
散云层高于2500英尺
短暂存在
从 22日的 18点(UTC)到 23日的 12点(UTC)
能見度: 4000
散云层高于1800英尺, 塔状积云.
阵雨
几率 30% :
短暂存在
从 22日的 18点(UTC)到 22日的 24点(UTC)
能見度: 2000
散云层高于1500英尺, 积雨云.
阵雨
成为
从 23日的 00点(UTC)到 23日的 02点(UTC)
风速3节,风向多变
成为
从 23日的 10点(UTC)到 23日的 12点(UTC)
风速10节,风向

TAF: TFFF 221700Z 2218/2318 12012KT 9999 SCT025 TEMPO 2218/2312 4000 SHRA SCT018TCU PROB30 TEMPO 2218/2224 2000 SHRA SCT015CB BECMG 2300/2302 VRB03KT BECMG 2310/2312 08010KT

超过4000个机场的气象观测和天气预报(METAR&TAF报告)。

可查询的气象台以黄色和红色小点在地图上表示。

将鼠标移到小点上方,可查看气象台名称。

然后点击查看天气观测和预报。

如需切换地图:点击带黑十字的绿色按钮放大地图;点击带横线的绿色按钮缩小地图;或者点击绿色箭头查看邻近地区的地图。


METAR-TAF: